Time;durP1;ratioP1;P1;durP2;ratioP2;P2;SDS_P1;SDS_P2;PMS_P1;PMS_P2;Temp;Humidity;BMP_temperature;BMP_pressure;BME280_temperature;BME280_humidity;BME280_pressure;Samples;Min_cycle;Max_cycle;Signal;HPM_P1;HPM_P2
2023/06/23 00:01:45;;;;;;;18.73;12.07;;;16.80;99.90;;;;;;4980396;28;20485;-68
2023/06/23 00:04:11;;;;;;;21.58;12.80;;;16.80;99.90;;;;;;4923349;28;207736;-68
2023/06/23 00:06:38;;;;;;;21.00;11.45;;;16.80;99.90;;;;;;4968625;28;20049;-69
2023/06/23 00:09:13;;;;;;;19.60;12.30;;;16.80;99.90;;;;;;4927479;28;209599;-69
2023/06/23 00:11:41;;;;;;;21.55;12.50;;;16.80;99.90;;;;;;4998812;28;20519;-69
2023/06/23 00:14:07;;;;;;;21.10;12.05;;;16.80;99.90;;;;;;4937903;28;207005;-69
2023/06/23 00:16:36;;;;;;;20.27;12.10;;;16.80;99.90;;;;;;4976838;28;20065;-69
2023/06/23 00:19:03;;;;;;;22.65;13.73;;;16.80;99.90;;;;;;4943941;28;207669;-69
2023/06/23 00:21:29;;;;;;;21.38;13.60;;;16.80;99.90;;;;;;5002326;28;20472;-70
2023/06/23 00:23:55;;;;;;;20.45;13.35;;;16.80;99.90;;;;;;4935040;28;208189;-69
2023/06/23 00:26:23;;;;;;;20.50;13.60;;;16.80;99.90;;;;;;5002845;28;20062;-69
2023/06/23 00:28:49;;;;;;;23.58;14.90;;;16.80;99.90;;;;;;4933917;28;217461;-69
2023/06/23 00:31:15;;;;;;;22.48;13.68;;;16.80;99.90;;;;;;4994335;28;20053;-69
2023/06/23 00:33:42;;;;;;;20.50;13.73;;;16.80;99.90;;;;;;4933441;28;207862;-70
2023/06/23 00:36:08;;;;;;;20.10;13.57;;;16.80;99.90;;;;;;5009402;28;20050;-69
2023/06/23 00:38:34;;;;;;;23.40;13.73;;;16.80;99.90;;;;;;4934561;28;208043;-69
2023/06/23 00:41:01;;;;;;;22.27;13.85;;;16.80;99.90;;;;;;5009446;28;20058;-69
2023/06/23 00:43:30;;;;;;;20.65;13.90;;;16.70;99.90;;;;;;4940737;28;209413;-69
2023/06/23 00:46:06;;;;;;;21.00;13.65;;;16.70;99.90;;;;;;5011763;28;20054;-69
2023/06/23 00:48:33;;;;;;;19.07;13.07;;;16.70;99.90;;;;;;4937611;28;208174;-70
2023/06/23 00:50:59;;;;;;;23.27;13.77;;;16.70;99.90;;;;;;5010086;28;20054;-69
2023/06/23 00:53:25;;;;;;;19.70;12.40;;;16.70;99.90;;;;;;4952706;28;206846;-68
2023/06/23 00:55:51;;;;;;;20.75;12.88;;;16.60;99.90;;;;;;4988545;28;20053;-69
2023/06/23 00:58:17;;;;;;;26.42;14.32;;;16.70;99.90;;;;;;4981740;28;206932;-67
2023/06/23 01:00:43;;;;;;;22.20;14.15;;;16.70;99.90;;;;;;4953821;28;206376;-69
2023/06/23 01:03:10;;;;;;;24.02;13.82;;;16.70;99.90;;;;;;4985420;28;20411;-68
2023/06/23 01:05:39;;;;;;;18.80;14.05;;;16.60;99.90;;;;;;4941187;28;212802;-69
2023/06/23 01:08:26;;;;;;;21.30;12.48;;;16.60;99.90;;;;;;4962615;28;20062;-68
2023/06/23 01:11:11;;;;;;;19.33;13.10;;;16.60;99.90;;;;;;4896563;28;206070;-69
2023/06/23 01:14:25;;;;;;;21.20;12.70;;;16.60;99.90;;;;;;4909162;28;210330;-69
2023/06/23 01:17:00;;;;;;;20.58;13.15;;;16.60;99.90;;;;;;4979605;28;20623;-69
2023/06/23 01:19:53;;;;;;;21.33;13.32;;;16.60;99.90;;;;;;4923183;28;211364;-68
2023/06/23 01:22:56;;;;;;;22.90;13.25;;;16.60;99.90;;;;;;4967682;28;20046;-69
2023/06/23 01:25:56;;;;;;;23.10;13.60;;;16.50;99.90;;;;;;4934678;28;210466;-69
2023/06/23 01:28:49;;;;;;;22.52;13.40;;;16.50;99.90;;;;;;4965043;28;210057;-68
2023/06/23 01:31:25;;;;;;;22.85;12.77;;;16.50;99.90;;;;;;4947976;28;20058;-69
2023/06/23 01:34:00;;;;;;;18.85;12.40;;;16.40;99.90;;;;;;4942647;28;207226;-69
2023/06/23 01:36:50;;;;;;;21.95;13.82;;;16.50;99.90;;;;;;4987705;28;20062;-69
2023/06/23 01:39:19;;;;;;;21.55;12.95;;;16.50;99.90;;;;;;4932677;28;221768;-69
2023/06/23 01:42:12;;;;;;;19.55;12.35;;;16.40;99.90;;;;;;4987818;28;20058;-68
2023/06/23 01:44:43;;;;;;;20.25;12.75;;;16.40;99.90;;;;;;4929772;28;208639;-69
2023/06/23 01:47:16;;;;;;;23.55;13.57;;;16.40;99.90;;;;;;4981465;28;20050;-69
2023/06/23 01:49:43;;;;;;;19.98;12.65;;;16.40;99.90;;;;;;4946674;28;207363;-69
2023/06/23 01:52:11;;;;;;;22.95;12.57;;;16.40;99.90;;;;;;4987856;28;20050;-68
2023/06/23 01:54:40;;;;;;;20.92;12.23;;;16.30;99.90;;;;;;4921826;28;244922;-68
2023/06/23 01:57:07;;;;;;;22.38;12.88;;;16.30;99.90;;;;;;4976277;28;20646;-69
2023/06/23 01:59:37;;;;;;;19.95;12.10;;;16.30;99.90;;;;;;4927693;28;206730;-69
2023/06/23 02:02:05;;;;;;;22.27;13.38;;;16.30;99.90;;;;;;4975653;28;20043;-69
2023/06/23 02:04:32;;;;;;;21.23;13.20;;;16.30;99.90;;;;;;4926531;28;206311;-69
2023/06/23 02:06:58;;;;;;;22.67;12.68;;;16.30;99.90;;;;;;4961352;28;20050;-70
2023/06/23 02:09:27;;;;;;;21.98;13.00;;;16.30;99.90;;;;;;4913821;28;208642;-69
2023/06/23 02:11:55;;;;;;;20.63;12.15;;;16.20;99.90;;;;;;4970483;28;20055;-69
2023/06/23 02:14:22;;;;;;;21.15;12.10;;;16.20;99.90;;;;;;4922779;28;206195;-69
2023/06/23 02:16:49;;;;;;;22.73;13.90;;;16.20;99.90;;;;;;4972166;28;20085;-68
2023/06/23 02:19:17;;;;;;;19.27;12.18;;;16.20;99.90;;;;;;4930365;28;115725;-68
2023/06/23 02:21:44;;;;;;;21.90;13.88;;;16.20;99.90;;;;;;4985594;28;20063;-69
2023/06/23 02:24:13;;;;;;;21.77;14.30;;;16.20;99.90;;;;;;4918983;28;207597;-69
2023/06/23 02:26:40;;;;;;;23.02;13.52;;;16.10;99.90;;;;;;4985827;28;20062;-68
2023/06/23 02:29:08;;;;;;;24.48;14.93;;;16.10;99.90;;;;;;4934915;28;206876;-69
2023/06/23 02:31:35;;;;;;;26.35;15.27;;;16.10;99.90;;;;;;4992512;28;20054;-69
2023/06/23 02:34:02;;;;;;;26.70;16.00;;;16.20;99.90;;;;;;4929821;28;209303;-68
2023/06/23 02:36:37;;;;;;;26.60;15.20;;;16.20;99.90;;;;;;4982047;28;20384;-69
2023/06/23 02:39:05;;;;;;;22.23;14.88;;;16.20;99.90;;;;;;4915637;28;207440;-69
2023/06/23 02:41:35;;;;;;;23.67;16.25;;;16.20;99.90;;;;;;4981886;28;20186;-69
2023/06/23 02:44:11;;;;;;;22.93;14.97;;;16.20;99.90;;;;;;4910049;28;208046;-69
2023/06/23 02:46:39;;;;;;;27.65;17.10;;;16.20;99.90;;;;;;4972200;28;20054;-69
2023/06/23 02:49:10;;;;;;;24.58;14.75;;;16.20;99.90;;;;;;4906854;28;212685;-68
2023/06/23 02:51:37;;;;;;;26.30;15.15;;;16.20;99.90;;;;;;4963012;28;20062;-69
2023/06/23 02:54:17;;;;;;;29.30;15.70;;;16.20;99.90;;;;;;4918337;28;219752;-69
2023/06/23 02:56:46;;;;;;;26.05;15.98;;;16.30;99.90;;;;;;4980779;28;20073;-69
2023/06/23 02:59:16;;;;;;;22.75;15.57;;;16.20;99.90;;;;;;4942486;28;210376;-69
2023/06/23 03:01:46;;;;;;;25.60;15.27;;;16.20;99.90;;;;;;4994326;28;20091;-69
2023/06/23 03:04:12;;;;;;;28.67;16.80;;;16.20;99.90;;;;;;4934570;28;212991;-69
2023/06/23 03:06:39;;;;;;;28.63;17.00;;;16.20;99.90;;;;;;5002244;28;20085;-70
2023/06/23 03:09:09;;;;;;;22.33;15.73;;;16.20;99.90;;;;;;4955947;28;180556;-68
2023/06/23 03:11:37;;;;;;;24.45;16.02;;;16.20;99.90;;;;;;5005684;28;20062;-69
2023/06/23 03:14:04;;;;;;;26.80;16.33;;;16.20;99.90;;;;;;4931229;28;208522;-69
2023/06/23 03:17:04;;;;;;;25.95;15.00;;;16.20;99.90;;;;;;4978072;28;20139;-69
2023/06/23 03:20:02;;;;;;;23.10;14.73;;;16.20;99.90;;;;;;4946420;28;207401;-71
2023/06/23 03:22:35;;;;;;;23.15;14.48;;;16.10;99.90;;;;;;4985897;28;20110;-70
2023/06/23 03:25:04;;;;;;;25.00;14.43;;;16.10;99.90;;;;;;4951434;28;212982;-69
2023/06/23 03:27:32;;;;;;;22.05;14.07;;;16.10;99.90;;;;;;4965119;28;20061;-69
2023/06/23 03:30:43;;;;;;;20.65;13.50;;;16.10;99.90;;;;;;4929158;28;208198;-69
2023/06/23 03:33:14;;;;;;;22.67;13.48;;;16.10;99.90;;;;;;4959809;28;20066;-68
2023/06/23 03:35:42;;;;;;;21.33;12.90;;;16.10;99.90;;;;;;4926536;28;64371;-68
2023/06/23 03:38:11;;;;;;;19.92;12.40;;;16.10;99.90;;;;;;4969832;28;20058;-68
2023/06/23 03:40:42;;;;;;;22.85;13.30;;;16.10;99.90;;;;;;4913773;28;208080;-69
2023/06/23 03:43:17;;;;;;;19.30;12.52;;;16.10;99.90;;;;;;4964447;28;20983;-69
2023/06/23 03:45:45;;;;;;;21.35;12.68;;;16.10;99.90;;;;;;4933905;28;129041;-70
2023/06/23 03:48:13;;;;;;;22.33;12.32;;;16.10;99.90;;;;;;4965784;28;20058;-70
2023/06/23 03:50:43;;;;;;;20.13;11.88;;;16.10;99.90;;;;;;4929642;28;195536;-70
2023/06/23 03:53:12;;;;;;;17.30;11.48;;;16.10;99.90;;;;;;4948740;28;20054;-69
2023/06/23 03:55:40;;;;;;;21.17;12.13;;;16.00;99.90;;;;;;4908113;28;206775;-69
2023/06/23 03:58:09;;;;;;;21.27;11.60;;;16.00;99.90;;;;;;4965447;28;20054;-69
2023/06/23 04:00:39;;;;;;;21.20;11.68;;;16.00;99.90;;;;;;4927327;28;206492;-68
2023/06/23 04:03:07;;;;;;;21.95;12.35;;;16.10;99.90;;;;;;4964009;28;20051;-70
2023/06/23 04:05:37;;;;;;;20.38;12.23;;;16.10;99.90;;;;;;4922812;28;212439;-71
2023/06/23 04:08:04;;;;;;;21.02;11.82;;;16.00;99.90;;;;;;4982803;28;20061;-69
2023/06/23 04:10:32;;;;;;;21.17;12.25;;;16.00;99.90;;;;;;4926444;28;213290;-69
2023/06/23 04:13:00;;;;;;;21.77;12.38;;;16.00;99.90;;;;;;4964535;28;20504;-69
2023/06/23 04:15:28;;;;;;;23.00;11.85;;;16.00;99.90;;;;;;4937551;28;207222;-68
2023/06/23 04:17:56;;;;;;;22.67;12.43;;;16.00;99.90;;;;;;4964521;28;20046;-69
2023/06/23 04:20:24;;;;;;;23.88;12.20;;;16.10;99.90;;;;;;4941669;28;207277;-68
2023/06/23 04:22:52;;;;;;;21.52;12.32;;;16.10;99.90;;;;;;4964853;28;20054;-69
2023/06/23 04:25:20;;;;;;;18.98;12.15;;;16.10;99.90;;;;;;4944892;28;207217;-69
2023/06/23 04:27:50;;;;;;;19.25;12.02;;;16.10;99.90;;;;;;4961071;28;20546;-70
2023/06/23 04:30:19;;;;;;;22.00;12.05;;;16.10;99.90;;;;;;4937538;28;205244;-69
2023/06/23 04:32:45;;;;;;;18.55;10.70;;;16.20;99.90;;;;;;4984652;28;20680;-69
2023/06/23 04:35:12;;;;;;;21.38;11.25;;;16.20;99.90;;;;;;4953401;28;209445;-69
2023/06/23 04:37:57;;;;;;;17.15;11.00;;;16.20;99.90;;;;;;4967865;28;20043;-70
2023/06/23 04:40:32;;;;;;;18.55;10.77;;;16.20;99.90;;;;;;4935887;28;208464;-70
2023/06/23 04:43:13;;;;;;;19.52;10.73;;;16.20;99.90;;;;;;4982960;28;20410;-69
2023/06/23 04:45:50;;;;;;;17.98;11.55;;;16.20;99.90;;;;;;4927056;28;209417;-70
2023/06/23 04:48:21;;;;;;;18.80;10.75;;;16.30;99.90;;;;;;4962992;28;20058;-70
2023/06/23 04:50:49;;;;;;;17.02;10.75;;;16.30;99.90;;;;;;4921779;28;119556;-70
2023/06/23 04:53:20;;;;;;;16.70;10.13;;;16.30;99.90;;;;;;4982178;28;20061;-70
2023/06/23 04:55:52;;;;;;;18.23;11.48;;;16.30;99.90;;;;;;4946064;28;75291;-70
2023/06/23 04:58:23;;;;;;;20.23;11.27;;;16.30;99.90;;;;;;4970759;28;233367;-70
2023/06/23 05:00:50;;;;;;;18.23;12.00;;;16.30;99.90;;;;;;4943409;28;260142;-70
2023/06/23 05:03:18;;;;;;;18.77;11.55;;;16.20;99.90;;;;;;4963127;28;20729;-71
2023/06/23 05:05:46;;;;;;;18.75;11.43;;;16.30;99.90;;;;;;4926725;28;107349;-68
2023/06/23 05:08:13;;;;;;;23.15;12.32;;;16.30;99.90;;;;;;4967093;28;20066;-69
2023/06/23 05:10:41;;;;;;;17.23;11.90;;;16.30;99.90;;;;;;4939375;28;207865;-69
2023/06/23 05:13:10;;;;;;;19.65;11.60;;;16.40;99.90;;;;;;4979060;28;20531;-69
2023/06/23 05:15:36;;;;;;;18.67;11.65;;;16.40;99.90;;;;;;4911564;28;207819;-69
2023/06/23 05:18:05;;;;;;;17.20;11.27;;;16.40;99.90;;;;;;4963933;28;20058;-69
2023/06/23 05:20:32;;;;;;;18.67;11.27;;;16.40;99.90;;;;;;4933835;28;105897;-69
2023/06/23 05:23:02;;;;;;;19.38;11.07;;;16.50;99.90;;;;;;4995236;28;20057;-68
2023/06/23 05:25:30;;;;;;;16.95;10.88;;;16.50;99.90;;;;;;4935236;28;214154;-69
2023/06/23 05:28:00;;;;;;;17.40;10.80;;;16.60;99.90;;;;;;4964437;28;20046;-70
2023/06/23 05:30:28;;;;;;;20.15;10.85;;;16.60;99.90;;;;;;4950009;28;212108;-69
2023/06/23 05:32:57;;;;;;;18.67;11.32;;;16.60;99.90;;;;;;4978208;28;20053;-70
2023/06/23 05:35:25;;;;;;;16.58;11.38;;;16.60;99.90;;;;;;4936049;28;201624;-70
2023/06/23 05:37:52;;;;;;;18.25;11.95;;;16.50;99.90;;;;;;4960131;28;20062;-71
2023/06/23 05:40:18;;;;;;;17.48;12.10;;;16.50;99.90;;;;;;4914648;28;209623;-71
2023/06/23 05:42:45;;;;;;;20.08;11.95;;;16.50;99.90;;;;;;4967469;28;20397;-70
2023/06/23 05:45:12;;;;;;;16.05;10.45;;;16.50;99.90;;;;;;4931285;28;207547;-70
2023/06/23 05:47:45;;;;;;;18.25;11.35;;;16.50;99.90;;;;;;4964498;28;20050;-70
2023/06/23 05:50:20;;;;;;;18.90;11.63;;;16.50;99.90;;;;;;4927813;28;208485;-70
2023/06/23 05:53:08;;;;;;;19.05;11.00;;;16.60;99.90;;;;;;4963227;28;20409;-69
2023/06/23 05:55:40;;;;;;;19.55;11.68;;;16.60;99.90;;;;;;4945180;28;223808;-68
2023/06/23 05:58:11;;;;;;;18.42;11.57;;;16.70;99.90;;;;;;4990874;28;20062;-68
2023/06/23 06:00:50;;;;;;;18.75;11.80;;;16.80;99.90;;;;;;4934388;28;208921;-67
2023/06/23 06:03:22;;;;;;;20.40;10.80;;;16.90;99.90;;;;;;4957002;28;20584;-67
2023/06/23 06:05:53;;;;;;;17.70;11.57;;;17.00;99.90;;;;;;4907975;28;91647;-67
2023/06/23 06:08:22;;;;;;;17.67;11.35;;;17.20;99.90;;;;;;4970497;28;212374;-69
2023/06/23 06:10:50;;;;;;;15.82;10.27;;;17.40;99.90;;;;;;4966673;28;210822;-71
2023/06/23 06:13:17;;;;;;;18.15;10.25;;;17.60;99.90;;;;;;4993463;28;20062;-70
2023/06/23 06:15:45;;;;;;;16.50;10.00;;;17.80;99.90;;;;;;4953556;28;172595;-70
2023/06/23 06:18:15;;;;;;;16.15;10.20;;;18.00;99.90;;;;;;4984735;28;20054;-70
2023/06/23 06:20:43;;;;;;;16.13;9.15;;;18.30;99.90;;;;;;4965667;28;196503;-70
2023/06/23 06:23:11;;;;;;;13.35;8.50;;;18.70;99.90;;;;;;4987565;28;20054;-69
2023/06/23 06:25:41;;;;;;;13.57;7.90;;;19.00;99.90;;;;;;4955192;28;209873;-69
2023/06/23 06:28:12;;;;;;;12.48;7.30;;;19.20;99.90;;;;;;4988062;28;20609;-70
2023/06/23 06:30:40;;;;;;;14.00;7.00;;;19.40;99.90;;;;;;4949858;28;212836;-70
2023/06/23 06:33:08;;;;;;;12.43;6.80;;;19.40;99.90;;;;;;4987170;28;20058;-69
2023/06/23 06:35:35;;;;;;;12.25;6.72;;;19.60;99.90;;;;;;4967251;28;229854;-67
2023/06/23 06:38:04;;;;;;;12.23;6.55;;;19.80;99.90;;;;;;4985043;28;20054;-67
2023/06/23 06:40:32;;;;;;;12.90;6.18;;;20.10;99.90;;;;;;4921380;28;206497;-66
2023/06/23 06:42:59;;;;;;;12.52;6.05;;;20.10;99.90;;;;;;4965894;28;20061;-68
2023/06/23 06:45:25;;;;;;;11.35;6.15;;;20.30;99.90;;;;;;4922892;28;139644;-66
2023/06/23 06:47:54;;;;;;;10.88;5.70;;;20.40;99.90;;;;;;4964822;28;20051;-66
2023/06/23 06:50:22;;;;;;;13.45;6.03;;;20.80;99.90;;;;;;4927528;28;211964;-67
2023/06/23 06:52:49;;;;;;;10.80;5.50;;;21.10;99.90;;;;;;4966684;28;20543;-67
2023/06/23 06:55:19;;;;;;;10.10;5.25;;;21.40;99.90;;;;;;4910718;28;210916;-66
2023/06/23 06:57:47;;;;;;;9.40;4.70;;;21.50;99.90;;;;;;4967177;28;20066;-67
2023/06/23 07:00:18;;;;;;;10.32;4.28;;;21.70;99.90;;;;;;4923233;28;208277;-67
2023/06/23 07:02:45;;;;;;;9.52;4.18;;;21.90;99.90;;;;;;4967442;28;20046;-68
2023/06/23 07:05:13;;;;;;;10.85;4.20;;;21.80;99.90;;;;;;4938453;28;214175;-67
2023/06/23 07:07:39;;;;;;;9.65;4.38;;;21.60;99.90;;;;;;4967926;28;20055;-68
2023/06/23 07:10:06;;;;;;;11.18;4.53;;;21.80;99.90;;;;;;4926978;28;208817;-65
2023/06/23 07:12:32;;;;;;;13.20;4.22;;;22.00;99.90;;;;;;4967166;28;20065;-68
2023/06/23 07:14:58;;;;;;;9.65;4.28;;;22.10;99.90;;;;;;4928573;28;228239;-67
2023/06/23 07:17:24;;;;;;;8.73;3.90;;;22.30;99.90;;;;;;4988178;28;20463;-68
2023/06/23 07:19:50;;;;;;;9.63;3.50;;;22.60;99.90;;;;;;4935008;28;211612;-68
2023/06/23 07:22:18;;;;;;;10.10;4.20;;;22.60;99.90;;;;;;4970670;28;20059;-69
2023/06/23 07:24:44;;;;;;;9.95;4.22;;;22.80;99.90;;;;;;4929747;28;238168;-68
2023/06/23 07:27:10;;;;;;;9.27;4.10;;;23.40;99.90;;;;;;4976277;28;20424;-67
2023/06/23 07:29:36;;;;;;;8.77;3.60;;;24.00;99.90;;;;;;4929552;28;216519;-68
2023/06/23 07:32:06;;;;;;;11.85;3.50;;;24.30;99.90;;;;;;4966383;28;20408;-69
2023/06/23 07:34:33;;;;;;;8.57;3.60;;;24.40;99.90;;;;;;4927078;28;208804;-69
2023/06/23 07:36:59;;;;;;;8.93;3.65;;;24.50;99.90;;;;;;4981528;28;20055;-69
2023/06/23 07:39:25;;;;;;;9.45;3.72;;;24.10;99.90;;;;;;4920228;28;203235;-69
2023/06/23 07:41:51;;;;;;;9.23;3.47;;;24.00;99.90;;;;;;4985624;28;20050;-69
2023/06/23 07:44:17;;;;;;;7.78;3.03;;;24.10;99.90;;;;;;4919067;28;207659;-70
2023/06/23 07:46:44;;;;;;;9.45;3.50;;;24.40;99.90;;;;;;4967496;28;20051;-70
2023/06/23 07:49:10;;;;;;;8.52;3.20;;;24.70;99.90;;;;;;4922266;28;210377;-70
2023/06/23 07:51:36;;;;;;;8.82;3.05;;;25.10;99.90;;;;;;4986334;28;20055;-71
2023/06/23 07:54:02;;;;;;;9.90;3.08;;;24.70;96.50;;;;;;4907156;28;210738;-70
2023/06/23 07:56:31;;;;;;;9.48;2.78;;;24.40;99.90;;;;;;4973013;28;20360;-69
2023/06/23 07:58:57;;;;;;;10.57;2.70;;;24.30;97.80;;;;;;4937058;28;205461;-70
2023/06/23 08:01:23;;;;;;;8.30;3.05;;;24.00;97.10;;;;;;4995160;28;20068;-69
2023/06/23 08:03:49;;;;;;;8.27;3.05;;;23.90;99.90;;;;;;4945295;28;207442;-69
2023/06/23 08:06:23;;;;;;;7.85;2.90;;;24.30;99.90;;;;;;5015767;28;21638;-69
2023/06/23 08:08:50;;;;;;;8.13;2.55;;;24.80;99.90;;;;;;4942055;28;216229;-70
2023/06/23 08:11:16;;;;;;;7.82;2.75;;;24.70;96.50;;;;;;5014203;28;20050;-71
2023/06/23 08:13:43;;;;;;;8.13;2.95;;;24.50;99.10;;;;;;4935929;28;207744;-71
2023/06/23 08:16:10;;;;;;;8.02;2.70;;;25.00;98.80;;;;;;5016893;28;20522;-69
2023/06/23 08:18:36;;;;;;;8.52;2.90;;;25.40;96.70;;;;;;4957007;28;206698;-71
2023/06/23 08:21:03;;;;;;;11.02;3.22;;;25.80;99.50;;;;;;4981327;28;20046;-72
2023/06/23 08:23:29;;;;;;;8.75;3.10;;;26.10;97.70;;;;;;4986241;28;20046;-71
2023/06/23 08:25:55;;;;;;;10.93;3.15;;;26.00;98.80;;;;;;4962263;28;208694;-71
2023/06/23 08:28:21;;;;;;;7.80;3.00;;;25.80;96.40;;;;;;4981736;28;20510;-69
2023/06/23 08:30:47;;;;;;;9.20;3.03;;;26.10;98.20;;;;;;4944297;28;227882;-72
2023/06/23 08:33:13;;;;;;;8.40;3.08;;;26.30;97.90;;;;;;4988537;28;20057;-71
2023/06/23 08:35:39;;;;;;;10.48;3.00;;;26.30;97.60;;;;;;4947827;28;210612;-72
2023/06/23 08:38:06;;;;;;;7.13;2.65;;;26.20;97.90;;;;;;4982059;28;20393;-72
2023/06/23 08:40:34;;;;;;;9.10;3.47;;;26.20;97.10;;;;;;4905767;28;212251;-70
2023/06/23 08:43:02;;;;;;;8.55;3.20;;;26.10;93.40;;;;;;4966544;28;20062;-71
2023/06/23 08:45:30;;;;;;;8.02;2.90;;;25.80;96.40;;;;;;4956462;28;215635;-71
2023/06/23 08:48:00;;;;;;;7.68;3.00;;;26.10;97.40;;;;;;4986485;28;20424;-71
2023/06/23 08:50:27;;;;;;;8.50;3.30;;;26.40;96.80;;;;;;4920585;28;238953;-70
2023/06/23 08:52:58;;;;;;;9.27;3.50;;;26.60;97.80;;;;;;4963485;28;20070;-69
2023/06/23 08:55:26;;;;;;;8.48;3.03;;;27.30;96.40;;;;;;4888986;28;207885;-70
2023/06/23 08:58:00;;;;;;;8.00;3.20;;;27.80;96.30;;;;;;4981026;28;20061;-69
2023/06/23 09:00:26;;;;;;;7.35;3.00;;;27.90;97.30;;;;;;4964036;28;286537;-70
2023/06/23 09:02:52;;;;;;;8.15;2.80;;;27.70;93.60;;;;;;4989407;28;20061;-70
2023/06/23 09:05:18;;;;;;;9.10;3.08;;;27.70;93.00;;;;;;4945587;28;213557;-70
2023/06/23 09:07:45;;;;;;;9.95;3.60;;;27.60;95.40;;;;;;4974289;28;20420;-70
2023/06/23 09:10:11;;;;;;;8.43;3.60;;;27.70;95.50;;;;;;4950290;28;207426;-70
2023/06/23 09:12:52;;;;;;;8.50;3.75;;;27.90;95.10;;;;;;4987364;28;20053;-70
2023/06/23 09:15:18;;;;;;;9.98;3.60;;;27.80;93.60;;;;;;4940164;28;207528;-71
2023/06/23 09:17:47;;;;;;;7.43;2.90;;;28.00;94.80;;;;;;4966236;28;20057;-69
2023/06/23 09:20:15;;;;;;;7.93;2.78;;;27.00;92.80;;;;;;4935043;28;217700;-70
2023/06/23 09:22:44;;;;;;;11.77;2.95;;;26.80;93.40;;;;;;4970222;28;20050;-70
2023/06/23 09:25:13;;;;;;;8.07;3.13;;;26.90;92.40;;;;;;4937776;28;208518;-69
2023/06/23 09:27:41;;;;;;;7.97;3.20;;;26.40;92.70;;;;;;4964603;28;20062;-69
2023/06/23 09:30:07;;;;;;;7.72;3.10;;;27.10;93.80;;;;;;4928016;28;246403;-69
2023/06/23 09:32:34;;;;;;;8.25;2.97;;;28.00;93.20;;;;;;4972562;28;20058;-69
2023/06/23 09:35:00;;;;;;;7.32;2.75;;;28.80;93.10;;;;;;4929277;28;224211;-70
2023/06/23 09:37:36;;;;;;;8.32;2.80;;;29.10;91.40;;;;;;4971956;28;20057;-70
2023/06/23 09:40:04;;;;;;;8.05;2.67;;;28.90;91.50;;;;;;4915344;28;214264;-70
2023/06/23 09:42:32;;;;;;;11.30;3.03;;;29.50;92.10;;;;;;4972414;28;20058;-71
2023/06/23 09:44:58;;;;;;;10.15;3.17;;;29.80;90.50;;;;;;4920893;28;207616;-70
2023/06/23 09:47:26;;;;;;;8.13;2.92;;;29.10;89.50;;;;;;4971443;28;20058;-69
2023/06/23 09:49:52;;;;;;;7.95;2.85;;;28.50;90.50;;;;;;4934338;28;207553;-70
2023/06/23 09:52:27;;;;;;;8.63;2.90;;;28.80;90.90;;;;;;4992423;28;20050;-70
2023/06/23 09:54:55;;;;;;;8.30;2.75;;;29.00;90.20;;;;;;4933396;28;213153;-68
2023/06/23 09:57:21;;;;;;;8.10;2.35;;;28.90;90.10;;;;;;4992723;28;20061;-69
2023/06/23 09:59:52;;;;;;;7.80;2.20;;;28.50;85.60;;;;;;4938789;28;242416;-69
2023/06/23 10:02:24;;;;;;;7.40;2.72;;;28.20;84.60;;;;;;4984828;28;20450;-69
2023/06/23 10:04:57;;;;;;;8.95;3.50;;;28.20;86.60;;;;;;4952158;28;206396;-70
2023/06/23 10:07:25;;;;;;;8.52;2.90;;;27.70;87.90;;;;;;4990508;28;20058;-69
2023/06/23 10:09:53;;;;;;;7.53;2.85;;;28.10;90.10;;;;;;4958466;28;206700;-70
2023/06/23 10:12:22;;;;;;;8.00;2.85;;;28.50;87.80;;;;;;4993104;28;20065;-70
2023/06/23 10:14:49;;;;;;;7.63;2.90;;;28.20;87.90;;;;;;4953231;28;207804;-70
2023/06/23 10:17:16;;;;;;;9.15;3.40;;;28.40;89.50;;;;;;4988975;28;20054;-69
2023/06/23 10:19:45;;;;;;;9.95;3.28;;;28.90;90.30;;;;;;4950065;28;234094;-70
2023/06/23 10:22:16;;;;;;;7.82;3.05;;;29.00;89.10;;;;;;4993322;28;20411;-69
2023/06/23 10:24:46;;;;;;;8.88;3.83;;;27.90;90.10;;;;;;4950679;28;211857;-69
2023/06/23 10:27:16;;;;;;;8.50;3.42;;;28.30;90.90;;;;;;4992157;28;20047;-69
2023/06/23 10:29:45;;;;;;;9.18;3.70;;;28.90;90.80;;;;;;4944895;28;206780;-68
2023/06/23 10:32:12;;;;;;;8.83;3.30;;;28.20;90.60;;;;;;4996954;28;20058;-69
2023/06/23 10:34:41;;;;;;;7.68;3.10;;;28.50;91.20;;;;;;4928082;28;186474;-69
2023/06/23 10:37:14;;;;;;;8.68;3.22;;;28.80;91.20;;;;;;4958153;28;20067;-68
2023/06/23 10:39:43;;;;;;;10.70;3.90;;;28.40;90.50;;;;;;4937012;28;208017;-68
2023/06/23 10:42:12;;;;;;;8.48;3.40;;;28.20;90.90;;;;;;5002211;28;20059;-69
2023/06/23 10:44:41;;;;;;;8.50;3.10;;;28.70;91.50;;;;;;4934945;28;209896;-69
2023/06/23 10:47:08;;;;;;;9.20;3.30;;;29.20;90.90;;;;;;4974120;28;20051;-70
2023/06/23 10:49:35;;;;;;;10.20;3.10;;;29.40;90.20;;;;;;4923598;28;218979;-69
2023/06/23 10:52:03;;;;;;;8.75;2.83;;;29.20;88.70;;;;;;4974863;28;20055;-69
2023/06/23 10:54:31;;;;;;;7.90;2.70;;;29.00;89.40;;;;;;4914064;28;212983;-69
2023/06/23 10:56:57;;;;;;;10.65;2.60;;;28.80;87.00;;;;;;4999653;28;20061;-71
2023/06/23 10:59:29;;;;;;;7.47;2.60;;;28.70;88.20;;;;;;4916928;28;207008;-69
2023/06/23 11:02:04;;;;;;;8.50;2.85;;;28.60;89.30;;;;;;4956598;28;20050;-69
2023/06/23 11:04:33;;;;;;;10.70;3.25;;;27.80;90.20;;;;;;4922466;28;209197;-70
2023/06/23 11:07:09;;;;;;;10.02;2.97;;;27.10;91.10;;;;;;4972428;28;20420;-68
2023/06/23 11:09:43;;;;;;;7.63;2.40;;;27.40;91.30;;;;;;4926019;28;208937;-68
2023/06/23 11:12:44;;;;;;;8.88;2.80;;;28.00;90.80;;;;;;4977198;28;20063;-71
2023/06/23 11:15:16;;;;;;;8.57;2.88;;;28.00;88.50;;;;;;4932605;28;256866;-69
2023/06/23 11:17:46;;;;;;;10.40;3.28;;;28.00;88.90;;;;;;4984703;28;20069;-71
2023/06/23 11:20:35;;;;;;;8.60;3.35;;;28.00;90.00;;;;;;4941226;28;208226;-72
2023/06/23 11:23:13;;;;;;;8.07;2.42;;;28.30;89.20;;;;;;4967127;28;20420;-70
2023/06/23 11:25:51;;;;;;;7.45;2.70;;;28.20;88.70;;;;;;4939258;28;218196;-70
2023/06/23 11:28:36;;;;;;;8.07;3.22;;;27.70;90.00;;;;;;4969808;28;20070;-70
2023/06/23 11:31:08;;;;;;;7.95;3.13;;;27.80;89.60;;;;;;4914980;28;207081;-73
2023/06/23 11:33:38;;;;;;;8.35;3.10;;;27.20;90.70;;;;;;4968967;28;213970;-71
2023/06/23 11:36:06;;;;;;;7.95;3.10;;;27.20;90.70;;;;;;4959801;28;20510;-73
2023/06/23 11:38:34;;;;;;;8.48;3.08;;;27.80;90.60;;;;;;4955481;28;211200;-71
2023/06/23 11:41:01;;;;;;;11.82;2.83;;;28.40;90.60;;;;;;4963770;28;163641;-70
2023/06/23 11:43:32;;;;;;;7.18;3.10;;;28.70;89.10;;;;;;4970095;28;20062;-71
2023/06/23 11:46:02;;;;;;;;;;;28.70;89.30;;;;;;4957329;28;144001;-71
2023/06/23 11:48:28;;;;;;;8.30;2.70;;;28.80;87.50;;;;;;4991833;28;19925;-70
2023/06/23 11:50:55;;;;;;;9.98;3.03;;;28.70;87.60;;;;;;4960850;28;198093;-70
2023/06/23 11:53:22;;;;;;;9.50;2.70;;;28.60;85.10;;;;;;4985845;28;20054;-70
2023/06/23 11:55:52;;;;;;;9.05;3.22;;;28.00;86.30;;;;;;4933498;28;209179;-73
2023/06/23 11:58:18;;;;;;;8.50;2.90;;;27.30;87.40;;;;;;4986420;28;20054;-72
2023/06/23 12:00:44;;;;;;;8.38;2.85;;;27.70;87.40;;;;;;4928582;28;208846;-72
2023/06/23 12:03:16;;;;;;;10.70;2.90;;;27.80;85.70;;;;;;4963645;28;20093;-72
2023/06/23 12:05:43;;;;;;;7.80;2.60;;;28.10;85.80;;;;;;4920885;28;207816;-72
2023/06/23 12:08:09;;;;;;;9.40;2.38;;;27.80;82.50;;;;;;4968144;28;20120;-72
2023/06/23 12:10:37;;;;;;;7.15;2.60;;;27.10;82.40;;;;;;4914955;28;208281;-72
2023/06/23 12:13:06;;;;;;;8.48;2.50;;;27.70;83.60;;;;;;4976455;28;20142;-73
2023/06/23 12:15:39;;;;;;;6.47;2.20;;;28.40;82.50;;;;;;4913846;28;206890;-73
2023/06/23 12:18:06;;;;;;;8.60;2.40;;;28.20;80.20;;;;;;4968710;28;20066;-72
2023/06/23 12:20:36;;;;;;;7.68;2.53;;;27.70;82.00;;;;;;4929854;28;214202;-71
2023/06/23 12:23:04;;;;;;;7.13;1.90;;;27.50;80.50;;;;;;4965338;28;20051;-70
2023/06/23 12:25:37;;;;;;;6.78;2.00;;;26.50;78.20;;;;;;4952611;28;211431;-72
2023/06/23 12:28:05;;;;;;;6.72;2.22;;;26.90;80.10;;;;;;4981119;28;20058;-71
2023/06/23 12:30:45;;;;;;;7.50;2.30;;;26.90;78.80;;;;;;4954958;28;209209;-70
2023/06/23 12:33:20;;;;;;;7.93;2.40;;;27.30;78.90;;;;;;4965591;28;20050;-69
2023/06/23 12:36:04;;;;;;;6.40;2.33;;;27.90;80.50;;;;;;4937329;28;222826;-69
2023/06/23 12:38:35;;;;;;;7.30;2.17;;;28.60;78.60;;;;;;4964648;28;20416;-70
2023/06/23 12:41:18;;;;;;;10.20;2.42;;;29.00;80.10;;;;;;4940133;28;79666;-69
2023/06/23 12:43:45;;;;;;;7.07;2.20;;;29.20;77.90;;;;;;4935899;28;207621;-69
2023/06/23 12:46:13;;;;;;;9.18;2.47;;;28.90;78.50;;;;;;5002033;28;20050;-69